createdAt,value
2023-01-12T00:02:20.094Z,100561.94
2023-01-12T00:04:47.189Z,100566.56
2023-01-12T00:07:16.016Z,100570.66
2023-01-12T00:09:43.273Z,100561.38
2023-01-12T00:12:12.125Z,100560.28
2023-01-12T00:14:40.110Z,100561.09
2023-01-12T00:17:11.867Z,100570.41
2023-01-12T00:19:40.052Z,100579.19
2023-01-12T00:22:07.147Z,100586.22
2023-01-12T00:24:44.609Z,100583.81
2023-01-12T00:27:16.711Z,100590.13
2023-01-12T00:29:44.247Z,100596.03
2023-01-12T00:32:18.967Z,100600.63
2023-01-12T00:34:46.139Z,100585.69
2023-01-12T00:37:13.496Z,100572.06
2023-01-12T00:39:45.520Z,100563.69
2023-01-12T00:42:32.349Z,100574.16
2023-01-12T00:45:17.961Z,100572.88
2023-01-12T00:47:45.010Z,100565.84
2023-01-12T00:50:11.993Z,100565.09
2023-01-12T00:52:39.177Z,100560.34
2023-01-12T00:55:07.102Z,100566.44
2023-01-12T00:57:34.163Z,100558.41
2023-01-12T01:00:01.170Z,100555.81
2023-01-12T01:02:28.990Z,100552.47
2023-01-12T01:04:56.624Z,100557.66
2023-01-12T01:07:24.472Z,100548.28
2023-01-12T01:09:52.408Z,100551.00
2023-01-12T01:12:19.476Z,100545.06
2023-01-12T01:14:48.489Z,100545.97
2023-01-12T01:17:15.847Z,100549.88
2023-01-12T01:19:43.568Z,100559.41
2023-01-12T01:22:13.517Z,100557.66
2023-01-12T01:24:41.653Z,100552.38
2023-01-12T01:27:08.704Z,100553.00
2023-01-12T01:29:35.811Z,100540.03
2023-01-12T01:32:02.900Z,100552.00
2023-01-12T01:34:30.030Z,100551.41
2023-01-12T01:36:57.041Z,100550.50
2023-01-12T01:39:24.031Z,100539.47
2023-01-12T01:41:51.742Z,100533.84
2023-01-12T01:44:30.909Z,100520.28
2023-01-12T01:47:27.075Z,100519.53
2023-01-12T01:49:59.426Z,100512.75
2023-01-12T01:52:34.596Z,100508.50
2023-01-12T01:55:17.735Z,100504.81
2023-01-12T01:58:09.665Z,100512.25
2023-01-12T02:00:39.047Z,100516.53
2023-01-12T02:03:08.491Z,100505.75
2023-01-12T02:05:39.604Z,100510.03
2023-01-12T02:09:01.648Z,100509.47
2023-01-12T02:11:48.634Z,100512.63
2023-01-12T02:14:33.995Z,100506.50
2023-01-12T02:17:46.792Z,100496.84
2023-01-12T02:21:06.220Z,100493.34
2023-01-12T02:24:16.215Z,100480.06
2023-01-12T02:27:29.987Z,100476.63
2023-01-12T02:30:50.589Z,100487.09
2023-01-12T02:34:01.127Z,100477.44
2023-01-12T02:36:58.679Z,100477.38
2023-01-12T02:39:59.820Z,100478.09
2023-01-12T02:42:54.369Z,100471.25
2023-01-12T02:45:47.750Z,100467.63
2023-01-12T02:48:47.028Z,100461.59
2023-01-12T02:51:37.492Z,100452.50
2023-01-12T02:54:13.278Z,100455.09
2023-01-12T02:56:46.310Z,100457.25
2023-01-12T02:59:29.021Z,100448.22
2023-01-12T03:02:22.941Z,100454.09
2023-01-12T03:04:50.462Z,100456.50
2023-01-12T03:08:01.518Z,100453.06
2023-01-12T03:10:48.465Z,100449.53
2023-01-12T03:13:17.954Z,100446.19
2023-01-12T03:15:57.511Z,100444.72
2023-01-12T03:19:02.249Z,100435.53
2023-01-12T03:21:37.278Z,100439.16
2023-01-12T03:24:17.112Z,100438.03
2023-01-12T03:26:54.953Z,100444.34
2023-01-12T03:29:50.264Z,100441.66
2023-01-12T03:32:20.056Z,100438.56
2023-01-12T03:34:47.544Z,100439.72
2023-01-12T03:37:38.408Z,100440.41
2023-01-12T03:40:22.133Z,100435.22
2023-01-12T03:43:15.921Z,100444.91
2023-01-12T03:45:58.718Z,100437.13
2023-01-12T03:49:00.764Z,100443.09
2023-01-12T03:51:39.298Z,100431.91
2023-01-12T03:54:10.177Z,100431.09
2023-01-12T03:56:39.085Z,100432.84
2023-01-12T03:59:06.603Z,100427.53
2023-01-12T04:01:33.717Z,100422.34
2023-01-12T04:04:01.191Z,100428.47
2023-01-12T04:06:28.181Z,100432.63
2023-01-12T04:08:55.361Z,100428.47
2023-01-12T04:11:41.076Z,100437.44
2023-01-12T04:14:08.253Z,100422.78
2023-01-12T04:16:35.298Z,100425.72
2023-01-12T04:19:02.347Z,100418.16
2023-01-12T04:21:47.981Z,100423.28
2023-01-12T04:24:15.191Z,100415.94
2023-01-12T04:26:42.234Z,100409.06
2023-01-12T04:29:09.240Z,100412.84
2023-01-12T04:31:36.306Z,100392.88
2023-01-12T04:34:03.469Z,100402.16
2023-01-12T04:36:33.649Z,100394.47
2023-01-12T04:39:00.636Z,100394.38
2023-01-12T04:41:27.732Z,100389.63
2023-01-12T04:43:55.226Z,100396.78
2023-01-12T04:46:22.218Z,100390.00
2023-01-12T04:48:49.291Z,100382.63
2023-01-12T04:51:16.352Z,100387.91
2023-01-12T04:53:43.439Z,100383.97
2023-01-12T04:56:10.532Z,100380.44
2023-01-12T04:58:37.677Z,100380.44
2023-01-12T05:01:15.607Z,100386.06
2023-01-12T05:03:43.558Z,100384.53
2023-01-12T05:06:11.516Z,100386.91
2023-01-12T05:08:57.827Z,100379.94
2023-01-12T05:11:28.905Z,100377.78
2023-01-12T05:13:57.260Z,100386.31
2023-01-12T05:16:27.473Z,100377.97
2023-01-12T05:18:54.692Z,100373.44
2023-01-12T05:21:24.183Z,100368.88
2023-01-12T05:23:53.353Z,100367.81
2023-01-12T05:26:20.662Z,100362.63
2023-01-12T05:28:51.653Z,100362.50
2023-01-12T05:31:22.175Z,100352.03
2023-01-12T05:33:49.368Z,100350.56
2023-01-12T05:36:18.399Z,100347.97
2023-01-12T05:38:45.470Z,100359.94
2023-01-12T05:41:18.121Z,100351.75
2023-01-12T05:43:54.866Z,100353.53
2023-01-12T05:46:30.609Z,100348.13
2023-01-12T05:48:58.836Z,100357.47
2023-01-12T05:51:30.807Z,100350.41
2023-01-12T05:54:00.958Z,100354.56
2023-01-12T05:56:28.618Z,100354.47
2023-01-12T05:59:00.274Z,100337.28
2023-01-12T06:01:29.484Z,100349.56
2023-01-12T06:04:04.303Z,100351.97
2023-01-12T06:06:32.239Z,100347.28
2023-01-12T06:09:00.991Z,100349.06
2023-01-12T06:11:46.757Z,100355.09
2023-01-12T06:14:14.518Z,100345.19
2023-01-12T06:16:43.644Z,100348.13
2023-01-12T06:19:14.375Z,100347.81
2023-01-12T06:21:41.968Z,100346.88
2023-01-12T06:24:09.540Z,100350.41
2023-01-12T06:26:36.650Z,100353.94
2023-01-12T06:29:06.756Z,100345.00
2023-01-12T06:31:34.233Z,100343.78
2023-01-12T06:34:01.496Z,100346.78
2023-01-12T06:36:28.624Z,100351.13
2023-01-12T06:38:55.646Z,100350.19
2023-01-12T06:41:41.201Z,100345.84
2023-01-12T06:44:08.215Z,100347.31
2023-01-12T06:46:35.302Z,100337.72
2023-01-12T06:49:05.543Z,100343.13
2023-01-12T06:51:32.798Z,100331.16
2023-01-12T06:54:01.379Z,100328.47
2023-01-12T06:56:28.712Z,100328.97
2023-01-12T06:58:55.801Z,100335.63
2023-01-12T07:01:26.962Z,100332.94
2023-01-12T07:03:54.293Z,100333.75
2023-01-12T07:06:24.185Z,100324.00
2023-01-12T07:08:51.236Z,100326.69
2023-01-12T07:11:18.370Z,100325.75
2023-01-12T07:13:45.490Z,100324.72
2023-01-12T07:16:12.940Z,100324.81
2023-01-12T07:18:40.058Z,100324.50
2023-01-12T07:21:13.953Z,100321.88
2023-01-12T07:23:44.148Z,100319.63
2023-01-12T07:26:12.177Z,100313.78
2023-01-12T07:28:40.365Z,100304.94
2023-01-12T07:31:07.810Z,100303.06
2023-01-12T07:33:36.730Z,100300.47
2023-01-12T07:36:04.888Z,100300.25
2023-01-12T07:38:32.780Z,100301.50
2023-01-12T07:41:05.137Z,100293.69
2023-01-12T07:43:35.952Z,100291.72
2023-01-12T07:46:03.160Z,100288.97
2023-01-12T07:48:30.755Z,100274.75
2023-01-12T07:50:59.465Z,100287.56
2023-01-12T07:53:26.519Z,100277.31
2023-01-12T07:55:53.634Z,100276.91
2023-01-12T07:58:21.180Z,100269.00
2023-01-12T08:00:48.212Z,100274.66
2023-01-12T08:03:15.380Z,100276.63
2023-01-12T08:05:42.818Z,100272.03
2023-01-12T08:08:10.431Z,100271.31
2023-01-12T08:10:37.854Z,100266.94
2023-01-12T08:13:04.910Z,100261.19
2023-01-12T08:15:40.228Z,100248.19
2023-01-12T08:18:36.852Z,100245.69
2023-01-12T08:21:11.680Z,100252.84
2023-01-12T08:23:56.280Z,100251.50
2023-01-12T08:26:31.960Z,100251.25
2023-01-12T08:29:34.870Z,100238.75
2023-01-12T08:34:42.084Z,100238.50
2023-01-12T08:37:16.472Z,100246.22
2023-01-12T08:39:43.745Z,100241.13
2023-01-12T08:42:11.277Z,100238.81
2023-01-12T08:44:38.718Z,100238.47
2023-01-12T08:47:19.162Z,100234.81
2023-01-12T08:49:48.298Z,100225.84
2023-01-12T08:52:16.626Z,100225.13
2023-01-12T08:54:44.164Z,100230.47
2023-01-12T08:57:11.451Z,100221.13
2023-01-12T08:59:38.699Z,100217.56
2023-01-12T09:02:06.005Z,100216.31
2023-01-12T09:04:39.577Z,100209.34
2023-01-12T09:07:13.530Z,100208.31
2023-01-12T09:09:40.655Z,100205.13
2023-01-12T09:12:07.875Z,100204.44
2023-01-12T09:14:39.162Z,100196.88
2023-01-12T09:17:07.667Z,100187.94
2023-01-12T09:19:38.031Z,100193.97
2023-01-12T09:22:05.288Z,100198.97
2023-01-12T09:24:32.325Z,100190.25
2023-01-12T09:27:00.179Z,100188.56
2023-01-12T09:29:27.641Z,100179.81
2023-01-12T09:31:56.297Z,100175.09
2023-01-12T09:34:23.431Z,100177.72
2023-01-12T09:36:53.538Z,100175.13
2023-01-12T09:39:27.640Z,100177.00
2023-01-12T09:42:16.222Z,100177.13
2023-01-12T09:45:09.075Z,100180.34
2023-01-12T09:47:40.609Z,100180.22
2023-01-12T09:50:32.686Z,100161.59
2023-01-12T09:53:27.614Z,100157.13
2023-01-12T09:56:43.663Z,100151.19
2023-01-12T09:59:51.591Z,100151.91
2023-01-12T10:02:18.859Z,100137.59
2023-01-12T10:04:49.684Z,100139.56
2023-01-12T10:07:18.489Z,100141.22
2023-01-12T10:09:46.280Z,100144.06
2023-01-12T10:12:31.161Z,100136.97
2023-01-12T10:15:31.054Z,100129.50
2023-01-12T10:18:33.256Z,100129.72
2023-01-12T10:21:00.952Z,100112.53
2023-01-12T10:23:28.514Z,100128.78
2023-01-12T10:26:24.314Z,100117.50
2023-01-12T10:28:55.514Z,100115.03
2023-01-12T10:31:27.012Z,100108.97
2023-01-12T10:34:10.133Z,100105.16
2023-01-12T10:36:49.129Z,100096.16
2023-01-12T10:39:33.838Z,100094.47
2023-01-12T10:42:43.123Z,100100.66
2023-01-12T10:45:26.988Z,100099.22
2023-01-12T10:47:56.235Z,100085.00
2023-01-12T10:50:33.038Z,100078.00
2023-01-12T10:53:17.468Z,100081.44
2023-01-12T10:55:45.392Z,100074.19
2023-01-12T10:58:29.425Z,100062.22
2023-01-12T11:00:57.556Z,100071.31
2023-01-12T11:03:42.051Z,100067.44
2023-01-12T11:06:29.194Z,100055.56
2023-01-12T11:09:17.493Z,100052.78
2023-01-12T11:11:47.474Z,100041.38
2023-01-12T11:14:37.152Z,100041.78
2023-01-12T11:17:26.639Z,100038.66
2023-01-12T11:19:57.479Z,100046.88
2023-01-12T11:22:37.295Z,100030.03
2023-01-12T11:25:26.612Z,100023.03
2023-01-12T11:28:10.712Z,100019.59
2023-01-12T11:30:51.769Z,100025.09
2023-01-12T11:33:47.421Z,100013.25
2023-01-12T11:36:31.109Z,100028.38
2023-01-12T11:39:12.627Z,100030.31
2023-01-12T11:42:14.151Z,100027.81
2023-01-12T11:45:14.657Z,99996.88
2023-01-12T11:48:23.092Z,99991.69
2023-01-12T11:50:53.405Z,99992.44
2023-01-12T11:53:24.135Z,99982.22
2023-01-12T11:56:35.987Z,100002.44
2023-01-12T11:59:21.014Z,99993.44
2023-01-12T12:02:39.319Z,99994.50
2023-01-12T12:05:49.401Z,99995.00
2023-01-12T12:09:10.493Z,99997.34
2023-01-12T12:12:02.115Z,99982.53
2023-01-12T12:14:57.302Z,99989.97
2023-01-12T12:18:09.634Z,100003.00
2023-01-12T12:21:30.058Z,99988.31
2023-01-12T12:24:44.723Z,99971.94
2023-01-12T12:27:48.875Z,99985.81
2023-01-12T12:30:40.459Z,99978.47
2023-01-12T12:33:57.061Z,99979.31
2023-01-12T12:36:49.505Z,99971.66
2023-01-12T12:40:02.347Z,99973.41
2023-01-12T12:43:10.053Z,99965.56
2023-01-12T12:46:12.577Z,99969.28
2023-01-12T12:49:04.871Z,99954.53
2023-01-12T12:51:35.389Z,99959.75
2023-01-12T12:54:10.783Z,99962.34
2023-01-12T12:56:38.825Z,99978.72
2023-01-12T12:59:06.263Z,99961.84
2023-01-12T13:01:35.468Z,99956.06
2023-01-12T13:04:08.362Z,99954.00
2023-01-12T13:06:49.502Z,99955.16
2023-01-12T13:09:16.507Z,99963.25
2023-01-12T13:12:19.009Z,99961.66
2023-01-12T13:15:19.696Z,99970.75
2023-01-12T13:17:49.576Z,99956.75
2023-01-12T13:20:25.711Z,99955.47
2023-01-12T13:22:53.765Z,99954.94
2023-01-12T13:25:24.201Z,99955.22
2023-01-12T13:28:00.363Z,99954.41
2023-01-12T13:30:29.987Z,99968.16
2023-01-12T13:33:24.154Z,99966.00
2023-01-12T13:35:50.968Z,99957.53
2023-01-12T13:38:45.223Z,99962.16
2023-01-12T13:41:38.472Z,99963.69
2023-01-12T13:44:14.875Z,99950.47
2023-01-12T13:46:51.322Z,99950.59
2023-01-12T13:49:57.469Z,99954.44
2023-01-12T13:52:37.154Z,99946.06
2023-01-12T13:55:22.904Z,99960.25
2023-01-12T13:58:16.862Z,99953.50
2023-01-12T14:01:03.536Z,99953.38
2023-01-12T14:04:20.385Z,99953.25
2023-01-12T14:07:09.161Z,99961.47
2023-01-12T14:10:25.721Z,99960.06
2023-01-12T14:13:52.215Z,99958.84
2023-01-12T14:16:37.732Z,99959.38
2023-01-12T14:19:28.804Z,99969.09
2023-01-12T14:22:04.837Z,99968.16
2023-01-12T14:24:43.377Z,99968.97
2023-01-12T14:27:27.355Z,99974.78
2023-01-12T14:29:55.028Z,99966.25
2023-01-12T14:32:33.921Z,99964.06
2023-01-12T14:35:01.201Z,99964.34
2023-01-12T14:37:40.613Z,99969.56
2023-01-12T14:40:31.467Z,99964.91
2023-01-12T14:43:19.700Z,99966.69
2023-01-12T14:46:21.145Z,99965.19
2023-01-12T14:49:17.386Z,99958.84
2023-01-12T14:52:15.790Z,99966.44
2023-01-12T14:54:47.129Z,99964.34
2023-01-12T14:57:36.501Z,99972.19
2023-01-12T15:00:05.103Z,99968.03
2023-01-12T15:02:41.993Z,99969.16
2023-01-12T15:05:26.863Z,99966.31
2023-01-12T15:08:08.113Z,99967.25
2023-01-12T15:10:42.321Z,99961.41
2023-01-12T15:13:35.321Z,99972.59
2023-01-12T15:16:25.240Z,99974.84
2023-01-12T15:19:11.019Z,99964.41
2023-01-12T15:21:58.626Z,99971.84
2023-01-12T15:24:52.850Z,99972.41
2023-01-12T15:27:24.370Z,99971.84
2023-01-12T15:29:51.917Z,99974.59
2023-01-12T15:32:46.383Z,99965.34
2023-01-12T15:35:23.624Z,99966.19
2023-01-12T15:37:55.176Z,99962.63
2023-01-12T15:40:24.746Z,99963.56
2023-01-12T15:42:56.157Z,99969.63
2023-01-12T15:45:40.757Z,99976.25
2023-01-12T15:48:10.874Z,99980.50
2023-01-12T15:50:42.945Z,99971.84
2023-01-12T15:53:24.153Z,99970.44
2023-01-12T15:55:52.676Z,99967.72
2023-01-12T15:58:20.063Z,99961.97
2023-01-12T16:00:55.524Z,99959.75
2023-01-12T16:03:54.507Z,99970.03
2023-01-12T16:06:09.672Z,99967.88
2023-01-12T16:08:36.973Z,99970.75
2023-01-12T16:11:14.242Z,99973.94
2023-01-12T16:13:41.947Z,99966.34
2023-01-12T16:16:16.815Z,99969.41
2023-01-12T16:18:44.642Z,99975.47
2023-01-12T16:21:22.597Z,99971.06
2023-01-12T16:23:50.244Z,99966.97
2023-01-12T16:26:28.263Z,99968.63
2023-01-12T16:28:57.678Z,99970.53
2023-01-12T16:31:25.504Z,99975.50
2023-01-12T16:33:55.775Z,99981.94
2023-01-12T16:36:28.556Z,99976.88
2023-01-12T16:38:58.622Z,99968.88
2023-01-12T16:41:25.879Z,99977.69
2023-01-12T16:43:54.500Z,99978.66
2023-01-12T16:46:21.601Z,99977.28
2023-01-12T16:48:48.694Z,99981.56
2023-01-12T16:51:18.661Z,99983.22
2023-01-12T16:53:47.292Z,99992.47
2023-01-12T16:56:16.416Z,99987.13
2023-01-12T16:58:48.189Z,99984.63
2023-01-12T17:01:24.679Z,99993.28
2023-01-12T17:03:57.483Z,99984.63
2023-01-12T17:06:27.660Z,99980.50
2023-01-12T17:08:55.816Z,99981.44
2023-01-12T17:11:24.864Z,99984.75
2023-01-12T17:13:55.930Z,99976.22
2023-01-12T17:16:27.502Z,99976.50
2023-01-12T17:18:55.029Z,99979.13
2023-01-12T17:21:22.702Z,99981.38
2023-01-12T17:23:50.042Z,99983.28
2023-01-12T17:26:21.418Z,99972.53
2023-01-12T17:28:48.537Z,99978.88
2023-01-12T17:31:21.020Z,99975.25
2023-01-12T17:33:48.443Z,99974.72
2023-01-12T17:36:17.031Z,99976.25
2023-01-12T17:38:44.363Z,99975.13
2023-01-12T17:41:36.984Z,99979.28
2023-01-12T17:44:07.000Z,99983.03
2023-01-12T17:46:34.911Z,99970.69
2023-01-12T17:49:07.068Z,99975.09
2023-01-12T17:51:43.050Z,99980.88
2023-01-12T17:54:15.835Z,99974.00
2023-01-12T17:56:46.221Z,99973.72
2023-01-12T17:59:20.874Z,99969.72
2023-01-12T18:01:52.063Z,99975.38
2023-01-12T18:04:19.539Z,99963.97
2023-01-12T18:06:46.586Z,99966.31
2023-01-12T18:09:14.284Z,99971.69
2023-01-12T18:11:47.915Z,99969.06
2023-01-12T18:14:15.250Z,99964.66
2023-01-12T18:16:42.579Z,99957.09
2023-01-12T18:19:11.351Z,99963.72
2023-01-12T18:21:41.773Z,99966.84
2023-01-12T18:24:09.043Z,99961.34
2023-01-12T18:26:36.346Z,99966.44
2023-01-12T18:29:06.195Z,99962.31
2023-01-12T18:31:38.006Z,99962.06
2023-01-12T18:34:10.862Z,99953.38
2023-01-12T18:36:41.073Z,99952.56
2023-01-12T18:39:20.644Z,99951.47
2023-01-12T18:42:08.640Z,99955.63
2023-01-12T18:44:38.004Z,99947.22
2023-01-12T18:47:24.037Z,99948.72
2023-01-12T18:49:53.723Z,99938.03
2023-01-12T18:52:39.234Z,99945.16
2023-01-12T18:55:07.264Z,99942.44
2023-01-12T18:57:35.103Z,99931.41
2023-01-12T19:00:14.032Z,99936.91
2023-01-12T19:02:41.819Z,99931.69
2023-01-12T19:05:42.558Z,99929.22
2023-01-12T19:08:30.394Z,99933.91
2023-01-12T19:11:11.852Z,99932.25
2023-01-12T19:13:58.287Z,99925.09
2023-01-12T19:17:01.688Z,99928.69
2023-01-12T19:19:35.502Z,99932.25
2023-01-12T19:22:23.588Z,99928.56
2023-01-12T19:25:15.001Z,99929.25
2023-01-12T19:28:00.804Z,99922.63
2023-01-12T19:30:36.419Z,99926.19
2023-01-12T19:33:06.533Z,99921.13
2023-01-12T19:35:33.659Z,99916.88
2023-01-12T19:38:03.989Z,99911.09
2023-01-12T19:40:43.973Z,99913.81
2023-01-12T19:43:20.868Z,99914.66
2023-01-12T19:45:58.950Z,99914.66
2023-01-12T19:48:26.868Z,99911.78
2023-01-12T19:50:54.983Z,99907.91
2023-01-12T19:53:30.401Z,99916.19
2023-01-12T19:55:57.566Z,99923.59
2023-01-12T19:58:26.746Z,99913.97
2023-01-12T20:00:55.944Z,99919.34
2023-01-12T20:03:24.448Z,99914.09
2023-01-12T20:05:53.011Z,99915.47
2023-01-12T20:08:24.709Z,99920.59
2023-01-12T20:11:01.993Z,99909.81
2023-01-12T20:13:30.490Z,99916.28
2023-01-12T20:15:57.958Z,99914.06
2023-01-12T20:18:25.221Z,99915.56
2023-01-12T20:20:58.587Z,99911.81
2023-01-12T20:23:25.882Z,99913.47
2023-01-12T20:25:53.167Z,99912.66
2023-01-12T20:28:20.284Z,99915.19
2023-01-12T20:30:47.645Z,99914.75
2023-01-12T20:33:14.713Z,99905.91
2023-01-12T20:35:47.998Z,99903.47
2023-01-12T20:38:16.886Z,99896.31
2023-01-12T20:40:53.406Z,99913.88
2023-01-12T20:43:22.800Z,99909.38
2023-01-12T20:45:50.115Z,99908.78
2023-01-12T20:48:26.309Z,99902.31
2023-01-12T20:50:55.123Z,99899.25
2023-01-12T20:53:23.767Z,99900.22
2023-01-12T20:55:51.678Z,99901.75
2023-01-12T20:58:19.772Z,99900.91
2023-01-12T21:00:50.291Z,99909.25
2023-01-12T21:03:20.961Z,99897.59
2023-01-12T21:05:48.886Z,99909.41
2023-01-12T21:08:18.309Z,99904.84
2023-01-12T21:10:52.215Z,99903.06
2023-01-12T21:13:21.021Z,99905.81
2023-01-12T21:15:48.103Z,99910.34
2023-01-12T21:18:15.165Z,99904.69
2023-01-12T21:20:43.614Z,99903.97
2023-01-12T21:23:11.479Z,99903.59
2023-01-12T21:25:46.418Z,99904.94
2023-01-12T21:28:14.262Z,99899.00
2023-01-12T21:30:41.449Z,99895.31
2023-01-12T21:33:09.033Z,99896.16
2023-01-12T21:35:36.961Z,99886.28
2023-01-12T21:38:04.293Z,99892.84
2023-01-12T21:40:35.360Z,99889.16
2023-01-12T21:43:08.532Z,99892.28
2023-01-12T21:45:45.594Z,99887.31
2023-01-12T21:48:15.814Z,99877.84
2023-01-12T21:50:43.838Z,99885.97
2023-01-12T21:53:23.483Z,99888.72
2023-01-12T21:55:57.748Z,99883.63
2023-01-12T21:58:26.863Z,99884.97
2023-01-12T22:00:55.201Z,99875.31
2023-01-12T22:03:27.494Z,99876.09
2023-01-12T22:05:55.576Z,99870.88
2023-01-12T22:08:23.578Z,99869.56
2023-01-12T22:10:50.570Z,99863.78
2023-01-12T22:13:18.074Z,99863.91
2023-01-12T22:15:48.297Z,99865.31
2023-01-12T22:18:15.316Z,99860.75
2023-01-12T22:20:42.740Z,99865.00
2023-01-12T22:23:13.024Z,99868.09
2023-01-12T22:25:40.324Z,99866.91
2023-01-12T22:28:07.343Z,99854.69
2023-01-12T22:30:34.330Z,99857.56
2023-01-12T22:33:01.354Z,99855.25
2023-01-12T22:35:28.360Z,99849.59
2023-01-12T22:37:55.772Z,99853.53
2023-01-12T22:40:23.039Z,99853.16
2023-01-12T22:43:08.682Z,99843.44
2023-01-12T22:45:38.147Z,99844.75
2023-01-12T22:48:06.091Z,99843.94
2023-01-12T22:50:33.511Z,99851.50
2023-01-12T22:53:00.635Z,99837.41
2023-01-12T22:55:27.813Z,99845.91
2023-01-12T22:57:54.881Z,99838.72
2023-01-12T23:00:22.389Z,99833.97
2023-01-12T23:03:02.388Z,99833.97
2023-01-12T23:05:55.934Z,99828.75
2023-01-12T23:08:24.320Z,99829.69
2023-01-12T23:10:52.161Z,99831.47
2023-01-12T23:13:21.364Z,99829.00
2023-01-12T23:15:56.755Z,99821.16
2023-01-12T23:18:29.884Z,99825.31
2023-01-12T23:21:26.483Z,99830.53
2023-01-12T23:24:00.764Z,99819.25
2023-01-12T23:26:32.699Z,99825.31
2023-01-12T23:29:02.891Z,99808.59
2023-01-12T23:31:33.570Z,99807.19
2023-01-12T23:34:01.419Z,99803.63
2023-01-12T23:36:31.008Z,99808.84
2023-01-12T23:39:02.865Z,99806.94
2023-01-12T23:41:33.995Z,99788.53
2023-01-12T23:44:04.958Z,99800.06
2023-01-12T23:46:40.230Z,99791.97
2023-01-12T23:49:07.320Z,99791.28
2023-01-12T23:51:36.246Z,99791.78
2023-01-12T23:54:03.661Z,99784.00
2023-01-12T23:56:33.215Z,99790.25
2023-01-12T23:59:00.705Z,99786.72
